sensor_id;sensor_type;location;lat;lon;timestamp;pressure;altitude;pressure_sealevel;temperature
9985;BMP180;16737;50.932;6.780;2024-01-11T00:02:11;101497.00;;;0.10
9985;BMP180;16737;50.932;6.780;2024-01-11T00:04:40;101509.00;;;0.10
9985;BMP180;16737;50.932;6.780;2024-01-11T00:07:08;101531.00;;;0.10
9985;BMP180;16737;50.932;6.780;2024-01-11T00:09:39;101515.00;;;0.10
9985;BMP180;16737;50.932;6.780;2024-01-11T00:12:07;101533.00;;;0.10
9985;BMP180;16737;50.932;6.780;2024-01-11T00:14:34;101526.00;;;0.10
9985;BMP180;16737;50.932;6.780;2024-01-11T00:17:01;101523.00;;;0.10
9985;BMP180;16737;50.932;6.780;2024-01-11T00:19:28;101525.00;;;0.10
9985;BMP180;16737;50.932;6.780;2024-01-11T00:21:56;101523.00;;;0.10
9985;BMP180;16737;50.932;6.780;2024-01-11T00:24:23;101518.00;;;0.10
9985;BMP180;16737;50.932;6.780;2024-01-11T00:26:50;101517.00;;;0.10
9985;BMP180;16737;50.932;6.780;2024-01-11T00:29:17;101524.00;;;0.10
9985;BMP180;16737;50.932;6.780;2024-01-11T00:31:44;101522.00;;;0.10
9985;BMP180;16737;50.932;6.780;2024-01-11T00:34:11;101411.00;;;0.10
9985;BMP180;16737;50.932;6.780;2024-01-11T00:36:38;101527.00;;;0.00
9985;BMP180;16737;50.932;6.780;2024-01-11T00:39:06;101535.00;;;0.10
9985;BMP180;16737;50.932;6.780;2024-01-11T00:41:33;101524.00;;;0.00
9985;BMP180;16737;50.932;6.780;2024-01-11T00:44:00;101528.00;;;0.10
9985;BMP180;16737;50.932;6.780;2024-01-11T00:46:27;101518.00;;;-0.60
9985;BMP180;16737;50.932;6.780;2024-01-11T00:48:54;101525.00;;;0.10
9985;BMP180;16737;50.932;6.780;2024-01-11T00:51:21;101529.00;;;0.10
9985;BMP180;16737;50.932;6.780;2024-01-11T00:53:48;101505.00;;;0.10
9985;BMP180;16737;50.932;6.780;2024-01-11T00:56:19;101519.00;;;0.10
9985;BMP180;16737;50.932;6.780;2024-01-11T00:58:46;101530.00;;;0.10
9985;BMP180;16737;50.932;6.780;2024-01-11T01:01:13;101512.00;;;0.10
9985;BMP180;16737;50.932;6.780;2024-01-11T01:03:40;101538.00;;;0.10
9985;BMP180;16737;50.932;6.780;2024-01-11T01:06:07;101533.00;;;0.10
9985;BMP180;16737;50.932;6.780;2024-01-11T01:08:34;101532.00;;;0.10
9985;BMP180;16737;50.932;6.780;2024-01-11T01:11:01;101515.00;;;0.10
9985;BMP180;16737;50.932;6.780;2024-01-11T01:13:30;101505.00;;;0.10
9985;BMP180;16737;50.932;6.780;2024-01-11T01:15:57;101533.00;;;0.10
9985;BMP180;16737;50.932;6.780;2024-01-11T01:18:24;101530.00;;;0.10
9985;BMP180;16737;50.932;6.780;2024-01-11T01:20:51;101539.00;;;0.10
9985;BMP180;16737;50.932;6.780;2024-01-11T01:23:18;101530.00;;;0.10
9985;BMP180;16737;50.932;6.780;2024-01-11T01:25:47;101519.00;;;0.10
9985;BMP180;16737;50.932;6.780;2024-01-11T01:28:13;101522.00;;;0.00
9985;BMP180;16737;50.932;6.780;2024-01-11T01:30:42;101532.00;;;0.00
9985;BMP180;16737;50.932;6.780;2024-01-11T01:33:09;101523.00;;;0.00
9985;BMP180;16737;50.932;6.780;2024-01-11T01:35:36;101547.00;;;0.00
9985;BMP180;16737;50.932;6.780;2024-01-11T01:38:03;101543.00;;;0.00
9985;BMP180;16737;50.932;6.780;2024-01-11T01:40:30;101430.00;;;0.00
9985;BMP180;16737;50.932;6.780;2024-01-11T01:42:58;101569.00;;;0.00
9985;BMP180;16737;50.932;6.780;2024-01-11T01:45:26;101548.00;;;-0.10
9985;BMP180;16737;50.932;6.780;2024-01-11T01:47:55;101531.00;;;0.00
9985;BMP180;16737;50.932;6.780;2024-01-11T01:50:22;101546.00;;;0.00
9985;BMP180;16737;50.932;6.780;2024-01-11T01:52:50;101544.00;;;0.00
9985;BMP180;16737;50.932;6.780;2024-01-11T01:55:19;101549.00;;;0.00
9985;BMP180;16737;50.932;6.780;2024-01-11T01:57:48;101554.00;;;0.00
9985;BMP180;16737;50.932;6.780;2024-01-11T02:00:16;101552.00;;;0.00
9985;BMP180;16737;50.932;6.780;2024-01-11T02:02:44;101559.00;;;0.00
9985;BMP180;16737;50.932;6.780;2024-01-11T02:05:16;101562.00;;;0.00
9985;BMP180;16737;50.932;6.780;2024-01-11T02:07:44;101562.00;;;0.10
9985;BMP180;16737;50.932;6.780;2024-01-11T02:10:12;101563.00;;;0.10
9985;BMP180;16737;50.932;6.780;2024-01-11T02:12:39;101568.00;;;0.10
9985;BMP180;16737;50.932;6.780;2024-01-11T02:15:07;101566.00;;;0.10
9985;BMP180;16737;50.932;6.780;2024-01-11T02:17:34;101562.00;;;0.00
9985;BMP180;16737;50.932;6.780;2024-01-11T02:20:02;101483.00;;;0.10
9985;BMP180;16737;50.932;6.780;2024-01-11T02:22:35;101568.00;;;0.10
9985;BMP180;16737;50.932;6.780;2024-01-11T02:25:04;101552.00;;;0.20
9985;BMP180;16737;50.932;6.780;2024-01-11T02:27:44;101536.00;;;0.10
9985;BMP180;16737;50.932;6.780;2024-01-11T02:30:12;101555.00;;;0.10
9985;BMP180;16737;50.932;6.780;2024-01-11T02:32:39;101560.00;;;0.10
9985;BMP180;16737;50.932;6.780;2024-01-11T02:35:07;101568.00;;;0.10
9985;BMP180;16737;50.932;6.780;2024-01-11T02:37:36;101543.00;;;0.10
9985;BMP180;16737;50.932;6.780;2024-01-11T02:40:08;101556.00;;;0.00
9985;BMP180;16737;50.932;6.780;2024-01-11T02:42:35;101543.00;;;0.00
9985;BMP180;16737;50.932;6.780;2024-01-11T02:45:03;101543.00;;;0.00
9985;BMP180;16737;50.932;6.780;2024-01-11T02:47:30;101526.00;;;-0.10
9985;BMP180;16737;50.932;6.780;2024-01-11T02:49:58;101549.00;;;-0.10
9985;BMP180;16737;50.932;6.780;2024-01-11T02:52:24;101554.00;;;-0.10
9985;BMP180;16737;50.932;6.780;2024-01-11T02:54:51;101547.00;;;-0.10
9985;BMP180;16737;50.932;6.780;2024-01-11T02:57:20;101548.00;;;-0.10
9985;BMP180;16737;50.932;6.780;2024-01-11T02:59:47;101539.00;;;-0.10
9985;BMP180;16737;50.932;6.780;2024-01-11T03:02:13;101541.00;;;-0.60
9985;BMP180;16737;50.932;6.780;2024-01-11T03:04:40;101537.00;;;-0.10
9985;BMP180;16737;50.932;6.780;2024-01-11T03:07:07;101540.00;;;-0.10
9985;BMP180;16737;50.932;6.780;2024-01-11T03:09:34;101532.00;;;-0.10
9985;BMP180;16737;50.932;6.780;2024-01-11T03:12:01;101528.00;;;-0.10
9985;BMP180;16737;50.932;6.780;2024-01-11T03:14:30;101527.00;;;-0.10
9985;BMP180;16737;50.932;6.780;2024-01-11T03:16:57;101537.00;;;-0.10
9985;BMP180;16737;50.932;6.780;2024-01-11T03:19:24;101517.00;;;-0.10
9985;BMP180;16737;50.932;6.780;2024-01-11T03:21:51;101526.00;;;-0.10
9985;BMP180;16737;50.932;6.780;2024-01-11T03:24:17;101514.00;;;-0.10
9985;BMP180;16737;50.932;6.780;2024-01-11T03:26:44;101515.00;;;-0.10
9985;BMP180;16737;50.932;6.780;2024-01-11T03:29:11;101512.00;;;-0.10
9985;BMP180;16737;50.932;6.780;2024-01-11T03:31:40;101517.00;;;-0.10
9985;BMP180;16737;50.932;6.780;2024-01-11T03:34:09;101503.00;;;-0.10
9985;BMP180;16737;50.932;6.780;2024-01-11T03:36:35;101515.00;;;-0.10
9985;BMP180;16737;50.932;6.780;2024-01-11T03:39:03;101523.00;;;-0.10
9985;BMP180;16737;50.932;6.780;2024-01-11T03:41:29;101537.00;;;-0.10
9985;BMP180;16737;50.932;6.780;2024-01-11T03:43:57;101528.00;;;-0.10
9985;BMP180;16737;50.932;6.780;2024-01-11T03:46:23;101535.00;;;-0.10
9985;BMP180;16737;50.932;6.780;2024-01-11T03:48:52;101531.00;;;-0.10
9985;BMP180;16737;50.932;6.780;2024-01-11T03:51:19;101527.00;;;-0.20
9985;BMP180;16737;50.932;6.780;2024-01-11T03:53:46;101534.00;;;-0.20
9985;BMP180;16737;50.932;6.780;2024-01-11T03:56:13;101519.00;;;-0.30
9985;BMP180;16737;50.932;6.780;2024-01-11T03:58:39;101524.00;;;-0.30
9985;BMP180;16737;50.932;6.780;2024-01-11T04:01:10;101531.00;;;-0.30
9985;BMP180;16737;50.932;6.780;2024-01-11T04:03:37;101581.00;;;-0.30
9985;BMP180;16737;50.932;6.780;2024-01-11T04:06:06;101528.00;;;-0.30
9985;BMP180;16737;50.932;6.780;2024-01-11T04:08:33;101531.00;;;-0.30
9985;BMP180;16737;50.932;6.780;2024-01-11T04:11:02;101530.00;;;-0.30
9985;BMP180;16737;50.932;6.780;2024-01-11T04:13:29;101533.00;;;-0.30
9985;BMP180;16737;50.932;6.780;2024-01-11T04:15:56;101539.00;;;-0.30
9985;BMP180;16737;50.932;6.780;2024-01-11T04:18:23;101508.00;;;-0.70
9985;BMP180;16737;50.932;6.780;2024-01-11T04:20:50;101530.00;;;-0.30
9985;BMP180;16737;50.932;6.780;2024-01-11T04:23:18;101553.00;;;-0.30
9985;BMP180;16737;50.932;6.780;2024-01-11T04:25:45;101552.00;;;-0.40
9985;BMP180;16737;50.932;6.780;2024-01-11T04:28:12;101538.00;;;-0.30
9985;BMP180;16737;50.932;6.780;2024-01-11T04:30:39;101541.00;;;-0.30
9985;BMP180;16737;50.932;6.780;2024-01-11T04:33:06;101518.00;;;-0.30
9985;BMP180;16737;50.932;6.780;2024-01-11T04:35:33;101550.00;;;-0.30
9985;BMP180;16737;50.932;6.780;2024-01-11T04:38:00;101551.00;;;-0.30
9985;BMP180;16737;50.932;6.780;2024-01-11T04:40:28;101554.00;;;-0.30
9985;BMP180;16737;50.932;6.780;2024-01-11T04:42:55;101549.00;;;-0.30
9985;BMP180;16737;50.932;6.780;2024-01-11T04:45:22;101558.00;;;-0.30
9985;BMP180;16737;50.932;6.780;2024-01-11T04:47:50;101569.00;;;-0.30
9985;BMP180;16737;50.932;6.780;2024-01-11T04:50:17;101552.00;;;-0.30
9985;BMP180;16737;50.932;6.780;2024-01-11T04:52:44;101567.00;;;-0.30
9985;BMP180;16737;50.932;6.780;2024-01-11T04:55:11;101579.00;;;-0.30
9985;BMP180;16737;50.932;6.780;2024-01-11T04:57:39;101568.00;;;-0.40
9985;BMP180;16737;50.932;6.780;2024-01-11T05:00:07;101586.00;;;-0.40
9985;BMP180;16737;50.932;6.780;2024-01-11T05:02:35;101579.00;;;-0.40
9985;BMP180;16737;50.932;6.780;2024-01-11T05:05:03;101570.00;;;-0.40
9985;BMP180;16737;50.932;6.780;2024-01-11T05:07:30;101575.00;;;-0.50
9985;BMP180;16737;50.932;6.780;2024-01-11T05:09:57;101586.00;;;-0.50
9985;BMP180;16737;50.932;6.780;2024-01-11T05:12:24;101580.00;;;-0.50
9985;BMP180;16737;50.932;6.780;2024-01-11T05:14:52;101570.00;;;-0.60
9985;BMP180;16737;50.932;6.780;2024-01-11T05:17:19;101573.00;;;-0.60
9985;BMP180;16737;50.932;6.780;2024-01-11T05:19:46;101591.00;;;-0.60
9985;BMP180;16737;50.932;6.780;2024-01-11T05:22:13;101592.00;;;-0.70
9985;BMP180;16737;50.932;6.780;2024-01-11T05:24:40;101580.00;;;-0.70
9985;BMP180;16737;50.932;6.780;2024-01-11T05:27:07;101575.00;;;-0.70
9985;BMP180;16737;50.932;6.780;2024-01-11T05:29:34;101579.00;;;-0.80
9985;BMP180;16737;50.932;6.780;2024-01-11T05:32:02;101565.00;;;-0.80
9985;BMP180;16737;50.932;6.780;2024-01-11T05:34:29;101588.00;;;-0.80
9985;BMP180;16737;50.932;6.780;2024-01-11T05:36:56;101564.00;;;-0.80
9985;BMP180;16737;50.932;6.780;2024-01-11T05:39:23;101577.00;;;-0.80
9985;BMP180;16737;50.932;6.780;2024-01-11T05:41:50;101570.00;;;-0.80
9985;BMP180;16737;50.932;6.780;2024-01-11T05:44:17;101580.00;;;-0.80
9985;BMP180;16737;50.932;6.780;2024-01-11T05:46:44;101588.00;;;-0.80
9985;BMP180;16737;50.932;6.780;2024-01-11T05:49:12;101590.00;;;-0.80
9985;BMP180;16737;50.932;6.780;2024-01-11T05:51:40;101594.00;;;-0.80
9985;BMP180;16737;50.932;6.780;2024-01-11T05:54:07;101589.00;;;-0.80
9985;BMP180;16737;50.932;6.780;2024-01-11T05:56:34;101607.00;;;-0.80
9985;BMP180;16737;50.932;6.780;2024-01-11T05:59:01;101614.00;;;-0.80
9985;BMP180;16737;50.932;6.780;2024-01-11T06:01:28;101598.00;;;-0.80
9985;BMP180;16737;50.932;6.780;2024-01-11T06:03:55;101607.00;;;-0.80
9985;BMP180;16737;50.932;6.780;2024-01-11T06:06:23;101595.00;;;-1.20
9985;BMP180;16737;50.932;6.780;2024-01-11T06:08:50;101596.00;;;-0.80
9985;BMP180;16737;50.932;6.780;2024-01-11T06:11:17;101598.00;;;-0.80
9985;BMP180;16737;50.932;6.780;2024-01-11T06:13:45;101595.00;;;-0.80
9985;BMP180;16737;50.932;6.780;2024-01-11T06:16:12;101615.00;;;-1.10
9985;BMP180;16737;50.932;6.780;2024-01-11T06:18:39;101621.00;;;-0.90
9985;BMP180;16737;50.932;6.780;2024-01-11T06:21:06;101615.00;;;-0.90
9985;BMP180;16737;50.932;6.780;2024-01-11T06:23:35;101630.00;;;-0.90
9985;BMP180;16737;50.932;6.780;2024-01-11T06:26:02;101617.00;;;-0.90
9985;BMP180;16737;50.932;6.780;2024-01-11T06:28:29;101619.00;;;-0.90
9985;BMP180;16737;50.932;6.780;2024-01-11T06:30:56;101625.00;;;-0.90
9985;BMP180;16737;50.932;6.780;2024-01-11T06:33:23;101599.00;;;-1.10
9985;BMP180;16737;50.932;6.780;2024-01-11T06:35:49;101625.00;;;-0.90
9985;BMP180;16737;50.932;6.780;2024-01-11T06:38:16;101613.00;;;-0.90
9985;BMP180;16737;50.932;6.780;2024-01-11T06:40:45;101626.00;;;-1.00
9985;BMP180;16737;50.932;6.780;2024-01-11T06:43:12;101639.00;;;-1.00
9985;BMP180;16737;50.932;6.780;2024-01-11T06:45:38;101628.00;;;-1.30
9985;BMP180;16737;50.932;6.780;2024-01-11T06:48:06;101625.00;;;-0.90
9985;BMP180;16737;50.932;6.780;2024-01-11T06:50:33;101646.00;;;-1.30
9985;BMP180;16737;50.932;6.780;2024-01-11T06:53:01;101650.00;;;-0.90
9985;BMP180;16737;50.932;6.780;2024-01-11T06:55:28;101636.00;;;-0.90
9985;BMP180;16737;50.932;6.780;2024-01-11T06:57:56;101637.00;;;-1.00
9985;BMP180;16737;50.932;6.780;2024-01-11T07:00:24;101638.00;;;-1.00
9985;BMP180;16737;50.932;6.780;2024-01-11T07:02:51;101647.00;;;-1.00
9985;BMP180;16737;50.932;6.780;2024-01-11T07:05:19;101645.00;;;-1.00
9985;BMP180;16737;50.932;6.780;2024-01-11T07:07:46;101639.00;;;-1.10
9985;BMP180;16737;50.932;6.780;2024-01-11T07:10:14;101545.00;;;-1.10
9985;BMP180;16737;50.932;6.780;2024-01-11T07:12:41;101504.00;;;-1.10
9985;BMP180;16737;50.932;6.780;2024-01-11T07:15:10;101642.00;;;-1.10
9985;BMP180;16737;50.932;6.780;2024-01-11T07:17:38;101628.00;;;-1.10
9985;BMP180;16737;50.932;6.780;2024-01-11T07:20:07;101619.00;;;-1.20
9985;BMP180;16737;50.932;6.780;2024-01-11T07:22:34;101634.00;;;-1.10
9985;BMP180;16737;50.932;6.780;2024-01-11T07:25:02;101613.00;;;-1.20
9985;BMP180;16737;50.932;6.780;2024-01-11T07:27:29;101635.00;;;-1.20
9985;BMP180;16737;50.932;6.780;2024-01-11T07:29:56;101640.00;;;-1.20
9985;BMP180;16737;50.932;6.780;2024-01-11T07:32:26;101625.00;;;-1.20
9985;BMP180;16737;50.932;6.780;2024-01-11T07:34:53;101608.00;;;-1.20
9985;BMP180;16737;50.932;6.780;2024-01-11T07:37:20;101629.00;;;-1.20
9985;BMP180;16737;50.932;6.780;2024-01-11T07:39:47;101634.00;;;-1.20
9985;BMP180;16737;50.932;6.780;2024-01-11T07:42:15;101576.00;;;-1.10
9985;BMP180;16737;50.932;6.780;2024-01-11T07:44:42;101646.00;;;-1.20
9985;BMP180;16737;50.932;6.780;2024-01-11T07:47:09;101657.00;;;-1.10
9985;BMP180;16737;50.932;6.780;2024-01-11T07:49:38;101671.00;;;-1.20
9985;BMP180;16737;50.932;6.780;2024-01-11T07:52:05;101667.00;;;-1.20
9985;BMP180;16737;50.932;6.780;2024-01-11T07:54:32;101664.00;;;-1.20
9985;BMP180;16737;50.932;6.780;2024-01-11T07:56:59;101668.00;;;-1.20
9985;BMP180;16737;50.932;6.780;2024-01-11T07:59:32;101675.00;;;-1.20
9985;BMP180;16737;50.932;6.780;2024-01-11T08:02:01;101701.00;;;-1.30
9985;BMP180;16737;50.932;6.780;2024-01-11T08:04:30;101697.00;;;-1.30
9985;BMP180;16737;50.932;6.780;2024-01-11T08:06:58;101700.00;;;-1.30
9985;BMP180;16737;50.932;6.780;2024-01-11T08:09:26;101716.00;;;-1.60
9985;BMP180;16737;50.932;6.780;2024-01-11T08:11:53;101700.00;;;-1.30
9985;BMP180;16737;50.932;6.780;2024-01-11T08:14:20;101697.00;;;-1.20
9985;BMP180;16737;50.932;6.780;2024-01-11T08:16:47;101714.00;;;-1.20
9985;BMP180;16737;50.932;6.780;2024-01-11T08:19:14;101689.00;;;-1.20
9985;BMP180;16737;50.932;6.780;2024-01-11T08:21:41;101689.00;;;-1.10
9985;BMP180;16737;50.932;6.780;2024-01-11T08:24:10;101653.00;;;-1.10
9985;BMP180;16737;50.932;6.780;2024-01-11T08:26:37;101689.00;;;-1.10
9985;BMP180;16737;50.932;6.780;2024-01-11T08:29:03;101688.00;;;-1.00
9985;BMP180;16737;50.932;6.780;2024-01-11T08:31:31;101675.00;;;-1.00
9985;BMP180;16737;50.932;6.780;2024-01-11T08:34:00;101690.00;;;-1.00
9985;BMP180;16737;50.932;6.780;2024-01-11T08:36:31;101672.00;;;-1.00
9985;BMP180;16737;50.932;6.780;2024-01-11T08:38:59;101687.00;;;-0.90
9985;BMP180;16737;50.932;6.780;2024-01-11T08:41:28;101687.00;;;-0.80
9985;BMP180;16737;50.932;6.780;2024-01-11T08:43:55;101685.00;;;-0.80
9985;BMP180;16737;50.932;6.780;2024-01-11T08:46:25;101666.00;;;-0.80
9985;BMP180;16737;50.932;6.780;2024-01-11T08:48:53;101667.00;;;-0.70
9985;BMP180;16737;50.932;6.780;2024-01-11T08:51:22;101684.00;;;-0.60
9985;BMP180;16737;50.932;6.780;2024-01-11T08:53:49;101681.00;;;-0.60
9985;BMP180;16737;50.932;6.780;2024-01-11T08:56:16;101688.00;;;-0.50
9985;BMP180;16737;50.932;6.780;2024-01-11T08:58:44;101684.00;;;-0.40
9985;BMP180;16737;50.932;6.780;2024-01-11T09:01:12;101682.00;;;-0.40
9985;BMP180;16737;50.932;6.780;2024-01-11T09:03:39;101682.00;;;-0.30
9985;BMP180;16737;50.932;6.780;2024-01-11T09:06:06;101693.00;;;-0.20
9985;BMP180;16737;50.932;6.780;2024-01-11T09:08:33;101680.00;;;-0.10
9985;BMP180;16737;50.932;6.780;2024-01-11T09:11:01;101523.00;;;0.00
9985;BMP180;16737;50.932;6.780;2024-01-11T09:13:29;101692.00;;;0.10
9985;BMP180;16737;50.932;6.780;2024-01-11T09:15:58;101701.00;;;0.20
9985;BMP180;16737;50.932;6.780;2024-01-11T09:18:24;101718.00;;;0.20
9985;BMP180;16737;50.932;6.780;2024-01-11T09:20:51;101636.00;;;0.30
9985;BMP180;16737;50.932;6.780;2024-01-11T09:23:18;101717.00;;;0.40
9985;BMP180;16737;50.932;6.780;2024-01-11T09:25:45;101708.00;;;0.50
9985;BMP180;16737;50.932;6.780;2024-01-11T09:28:12;101732.00;;;0.50
9985;BMP180;16737;50.932;6.780;2024-01-11T09:30:39;101719.00;;;0.60
9985;BMP180;16737;50.932;6.780;2024-01-11T09:33:08;101725.00;;;0.70
9985;BMP180;16737;50.932;6.780;2024-01-11T09:35:34;101721.00;;;0.70
9985;BMP180;16737;50.932;6.780;2024-01-11T09:38:01;101718.00;;;0.80
9985;BMP180;16737;50.932;6.780;2024-01-11T09:40:29;101700.00;;;0.90
9985;BMP180;16737;50.932;6.780;2024-01-11T09:42:57;101719.00;;;1.00
9985;BMP180;16737;50.932;6.780;2024-01-11T09:45:25;101732.00;;;1.10
9985;BMP180;16737;50.932;6.780;2024-01-11T09:47:52;101745.00;;;1.20
9985;BMP180;16737;50.932;6.780;2024-01-11T09:50:22;101740.00;;;1.30
9985;BMP180;16737;50.932;6.780;2024-01-11T09:52:52;101743.00;;;1.40
9985;BMP180;16737;50.932;6.780;2024-01-11T09:55:19;101741.00;;;1.40
9985;BMP180;16737;50.932;6.780;2024-01-11T09:57:48;101743.00;;;1.50
9985;BMP180;16737;50.932;6.780;2024-01-11T10:00:18;101760.00;;;1.60
9985;BMP180;16737;50.932;6.780;2024-01-11T10:02:47;101775.00;;;1.70
9985;BMP180;16737;50.932;6.780;2024-01-11T10:05:14;101768.00;;;1.80
9985;BMP180;16737;50.932;6.780;2024-01-11T10:07:43;101734.00;;;1.90
9985;BMP180;16737;50.932;6.780;2024-01-11T10:10:12;101761.00;;;2.00
9985;BMP180;16737;50.932;6.780;2024-01-11T10:12:41;101786.00;;;2.10
9985;BMP180;16737;50.932;6.780;2024-01-11T10:15:10;101757.00;;;2.20
9985;BMP180;16737;50.932;6.780;2024-01-11T10:17:40;101760.00;;;2.30
9985;BMP180;16737;50.932;6.780;2024-01-11T10:20:09;101764.00;;;2.40
9985;BMP180;16737;50.932;6.780;2024-01-11T10:22:37;101780.00;;;2.50
9985;BMP180;16737;50.932;6.780;2024-01-11T10:25:16;101767.00;;;2.60
9985;BMP180;16737;50.932;6.780;2024-01-11T10:27:45;101759.00;;;2.70
9985;BMP180;16737;50.932;6.780;2024-01-11T10:30:15;101749.00;;;2.60
9985;BMP180;16737;50.932;6.780;2024-01-11T10:32:43;101733.00;;;2.70
9985;BMP180;16737;50.932;6.780;2024-01-11T10:35:10;101766.00;;;2.70
9985;BMP180;16737;50.932;6.780;2024-01-11T10:37:38;101738.00;;;2.80
9985;BMP180;16737;50.932;6.780;2024-01-11T10:40:07;101737.00;;;2.80
9985;BMP180;16737;50.932;6.780;2024-01-11T10:42:42;101761.00;;;2.90
9985;BMP180;16737;50.932;6.780;2024-01-11T10:45:14;101755.00;;;2.90
9985;BMP180;16737;50.932;6.780;2024-01-11T10:47:51;101753.00;;;2.90
9985;BMP180;16737;50.932;6.780;2024-01-11T10:50:19;101761.00;;;2.90
9985;BMP180;16737;50.932;6.780;2024-01-11T10:53:02;101732.00;;;2.90
9985;BMP180;16737;50.932;6.780;2024-01-11T10:55:34;101762.00;;;2.90
9985;BMP180;16737;50.932;6.780;2024-01-11T10:58:04;101760.00;;;3.00
9985;BMP180;16737;50.932;6.780;2024-01-11T11:00:33;101659.00;;;3.00
9985;BMP180;16737;50.932;6.780;2024-01-11T11:03:05;101739.00;;;3.00
9985;BMP180;16737;50.932;6.780;2024-01-11T11:05:34;101736.00;;;3.10
9985;BMP180;16737;50.932;6.780;2024-01-11T11:08:04;101771.00;;;3.10
9985;BMP180;16737;50.932;6.780;2024-01-11T11:10:32;101666.00;;;3.20
9985;BMP180;16737;50.932;6.780;2024-01-11T11:13:03;101779.00;;;3.20
9985;BMP180;16737;50.932;6.780;2024-01-11T11:15:33;101769.00;;;3.20
9985;BMP180;16737;50.932;6.780;2024-01-11T11:18:02;101801.00;;;3.20
9985;BMP180;16737;50.932;6.780;2024-01-11T11:20:32;101800.00;;;3.30
9985;BMP180;16737;50.932;6.780;2024-01-11T11:23:06;101778.00;;;3.30
9985;BMP180;16737;50.932;6.780;2024-01-11T11:25:34;101780.00;;;3.40
9985;BMP180;16737;50.932;6.780;2024-01-11T11:28:04;101714.00;;;3.40
9985;BMP180;16737;50.932;6.780;2024-01-11T11:30:31;101805.00;;;3.50
9985;BMP180;16737;50.932;6.780;2024-01-11T11:33:08;101537.00;;;3.60
9985;BMP180;16737;50.932;6.780;2024-01-11T11:35:36;101789.00;;;3.70
9985;BMP180;16737;50.932;6.780;2024-01-11T11:38:05;101787.00;;;3.70
9985;BMP180;16737;50.932;6.780;2024-01-11T11:40:33;101789.00;;;3.60
9985;BMP180;16737;50.932;6.780;2024-01-11T11:43:06;101745.00;;;3.90
9985;BMP180;16737;50.932;6.780;2024-01-11T11:45:33;101783.00;;;3.90
9985;BMP180;16737;50.932;6.780;2024-01-11T11:48:00;101775.00;;;4.00
9985;BMP180;16737;50.932;6.780;2024-01-11T11:50:29;101781.00;;;4.00
9985;BMP180;16737;50.932;6.780;2024-01-11T11:52:57;101775.00;;;4.10
9985;BMP180;16737;50.932;6.780;2024-01-11T11:55:25;101773.00;;;4.20
9985;BMP180;16737;50.932;6.780;2024-01-11T11:57:53;101743.00;;;4.30
9985;BMP180;16737;50.932;6.780;2024-01-11T12:00:21;101766.00;;;4.40
9985;BMP180;16737;50.932;6.780;2024-01-11T12:02:50;101783.00;;;4.50
9985;BMP180;16737;50.932;6.780;2024-01-11T12:05:18;101785.00;;;4.60
9985;BMP180;16737;50.932;6.780;2024-01-11T12:07:46;101777.00;;;4.70
9985;BMP180;16737;50.932;6.780;2024-01-11T12:10:14;101784.00;;;4.70
9985;BMP180;16737;50.932;6.780;2024-01-11T12:12:41;101796.00;;;4.70
9985;BMP180;16737;50.932;6.780;2024-01-11T12:15:09;101796.00;;;4.80
9985;BMP180;16737;50.932;6.780;2024-01-11T12:17:38;101791.00;;;4.80
9985;BMP180;16737;50.932;6.780;2024-01-11T12:20:09;101778.00;;;4.90
9985;BMP180;16737;50.932;6.780;2024-01-11T12:22:36;101764.00;;;5.00
9985;BMP180;16737;50.932;6.780;2024-01-11T12:25:06;101783.00;;;5.00
9985;BMP180;16737;50.932;6.780;2024-01-11T12:27:33;101776.00;;;5.10
9985;BMP180;16737;50.932;6.780;2024-01-11T12:30:01;101778.00;;;5.20
9985;BMP180;16737;50.932;6.780;2024-01-11T12:32:28;101773.00;;;5.20
9985;BMP180;16737;50.932;6.780;2024-01-11T12:34:59;101773.00;;;5.00
9985;BMP180;16737;50.932;6.780;2024-01-11T12:37:26;101775.00;;;5.30
9985;BMP180;16737;50.932;6.780;2024-01-11T12:39:58;101759.00;;;5.30
9985;BMP180;16737;50.932;6.780;2024-01-11T12:42:25;101760.00;;;5.40
9985;BMP180;16737;50.932;6.780;2024-01-11T12:44:52;101736.00;;;5.40
9985;BMP180;16737;50.932;6.780;2024-01-11T12:47:19;101748.00;;;5.50
9985;BMP180;16737;50.932;6.780;2024-01-11T12:49:47;101744.00;;;5.50
9985;BMP180;16737;50.932;6.780;2024-01-11T12:52:17;101725.00;;;5.60
9985;BMP180;16737;50.932;6.780;2024-01-11T12:54:45;101731.00;;;5.60
9985;BMP180;16737;50.932;6.780;2024-01-11T12:57:12;101736.00;;;5.70
9985;BMP180;16737;50.932;6.780;2024-01-11T12:59:44;101748.00;;;5.80
9985;BMP180;16737;50.932;6.780;2024-01-11T13:02:11;101742.00;;;5.80
9985;BMP180;16737;50.932;6.780;2024-01-11T13:04:39;101707.00;;;5.90
9985;BMP180;16737;50.932;6.780;2024-01-11T13:07:06;101728.00;;;5.90
9985;BMP180;16737;50.932;6.780;2024-01-11T13:09:35;101724.00;;;6.00
9985;BMP180;16737;50.932;6.780;2024-01-11T13:12:02;101748.00;;;6.00
9985;BMP180;16737;50.932;6.780;2024-01-11T13:14:29;101761.00;;;6.20
9985;BMP180;16737;50.932;6.780;2024-01-11T13:16:57;101764.00;;;6.30
9985;BMP180;16737;50.932;6.780;2024-01-11T13:19:24;101775.00;;;6.30
9985;BMP180;16737;50.932;6.780;2024-01-11T13:21:51;101772.00;;;6.30
9985;BMP180;16737;50.932;6.780;2024-01-11T13:24:18;101756.00;;;6.30
9985;BMP180;16737;50.932;6.780;2024-01-11T13:26:47;101755.00;;;6.30
9985;BMP180;16737;50.932;6.780;2024-01-11T13:29:14;101782.00;;;6.30
9985;BMP180;16737;50.932;6.780;2024-01-11T13:31:40;101778.00;;;6.40
9985;BMP180;16737;50.932;6.780;2024-01-11T13:34:07;101765.00;;;6.00
9985;BMP180;16737;50.932;6.780;2024-01-11T13:36:34;101763.00;;;6.40
9985;BMP180;16737;50.932;6.780;2024-01-11T13:39:01;101771.00;;;6.40
9985;BMP180;16737;50.932;6.780;2024-01-11T13:41:28;101777.00;;;6.50
9985;BMP180;16737;50.932;6.780;2024-01-11T13:43:57;101759.00;;;6.50
9985;BMP180;16737;50.932;6.780;2024-01-11T13:46:24;101782.00;;;6.50
9985;BMP180;16737;50.932;6.780;2024-01-11T13:48:51;101785.00;;;6.50
9985;BMP180;16737;50.932;6.780;2024-01-11T13:51:18;101788.00;;;6.50
9985;BMP180;16737;50.932;6.780;2024-01-11T13:53:45;101776.00;;;6.50
9985;BMP180;16737;50.932;6.780;2024-01-11T13:56:13;101779.00;;;6.40
9985;BMP180;16737;50.932;6.780;2024-01-11T13:58:40;101765.00;;;6.40
9985;BMP180;16737;50.932;6.780;2024-01-11T14:01:08;101770.00;;;6.20
9985;BMP180;16737;50.932;6.780;2024-01-11T14:03:35;101776.00;;;6.40
9985;BMP180;16737;50.932;6.780;2024-01-11T14:06:03;101785.00;;;6.40
9985;BMP180;16737;50.932;6.780;2024-01-11T14:08:30;101759.00;;;6.40
9985;BMP180;16737;50.932;6.780;2024-01-11T14:10:57;101775.00;;;6.40
9985;BMP180;16737;50.932;6.780;2024-01-11T14:13:24;101765.00;;;6.40
9985;BMP180;16737;50.932;6.780;2024-01-11T14:15:51;101779.00;;;6.30
9985;BMP180;16737;50.932;6.780;2024-01-11T14:18:21;101760.00;;;6.30
9985;BMP180;16737;50.932;6.780;2024-01-11T14:20:48;101784.00;;;6.30